Resolute — WTW2234 — position and weather

sailwx.info

Track history (hours):
 
Tides and Currents Weather Stations Pressure Air Temp Water Temp Dewpoint Dewpoint Depression Visibility Wind Speed Wind Dir Waves Ship Positions

Resolute

Owner: Providence Steamboat Co., PROVIDENCE, RI. More information available from US FCC via Universal Licensing System and Coast Guard Vessel Documentation Center.

Last reported at 2016-Jul-13 16:31 UTC. Time now 2016-Jul-25 11:56 UTC.
Position N 40°38' W 074°10'.
Warning: this ship's position is 11 days out of date.

Length 30 m; draft 4 m.

Type: Tug. MMSI: 367091630.

Date/timePositionNaut miles runAvg speedWind from/ knotsBaromVisibWave heightAir tempDewpointWater temp
2016-Jul-13 16:31N 40°38' W 074°10'7 6.8
2016-Jul-13 15:33N 40°35' W 074°02'8 7.8
2016-Jul-13 14:33N 40°27' W 074°03'2 1.2
2016-Jul-13 13:05N 40°29' W 074°02'2 1.5
2016-Jul-13 11:33N 40°31' W 074°03'8 8.2
2016-Jul-13 10:33N 40°39' W 074°02'4 4.2
2016-Jul-13 09:31N 40°42' W 073°58'2 2.3
2016-Jul-13 08:33N 40°42' W 074°01'6 6.1
2016-Jul-13 07:33N 40°39' W 074°08'  
2016-Jul-07 23:07N 40°39' W 074°05'4 1.2
2016-Jul-07 19:25N 40°35' W 074°02'8 1.1
2016-Jul-07 12:24N 40°38' W 074°12'6 7.6
2016-Jul-07 11:33N 40°40' W 074°04'1 0.6
2016-Jul-07 10:33N 40°40' W 074°05'2 1.9
2016-Jul-07 09:33N 40°39' W 074°03'4 2.1
2016-Jul-07 07:25N 40°40' W 074°09'1 1.3
2016-Jul-07 06:33N 40°39' W 074°09'1 1.4
2016-Jul-07 05:32N 40°40' W 074°08'1 0.9
2016-Jul-07 04:33N 40°39' W 074°09'1 1.0
2016-Jul-07 03:33N 40°38' W 074°10'0 0.0
2016-Jul-07 02:33N 40°38' W 074°10'0 0.0
2016-Jul-07 01:33N 40°38' W 074°10'0 0.0
2016-Jul-07 00:33N 40°38' W 074°10'1 0.2
2016-Jul-06 18:17N 40°38' W 074°12'0 0.0
2016-Jul-06 14:32N 40°38' W 074°11'1 1.3
2016-Jul-06 13:32N 40°38' W 074°10'0 0.0
2016-Jul-06 12:32N 40°38' W 074°10'0 0.0
2016-Jul-06 11:29N 40°38' W 074°10'1 1.2
2016-Jul-06 10:32N 40°39' W 074°11'7 6.6
2016-Jul-06 09:33N 40°37' W 074°03'5 5.2
2016-Jul-06 08:32N 40°38' W 074°10'0 0.0
2016-Jul-06 07:32N 40°38' W 074°10'0 0.0
2016-Jul-06 06:29N 40°38' W 074°10'0 0.0
2016-Jul-06 05:32N 40°38' W 074°10'0 0.0
2016-Jul-06 04:32N 40°38' W 074°10'0 0.0
2016-Jul-06 03:32N 40°38' W 074°10'0 0.0
2016-Jul-06 02:29N 40°38' W 074°10'0 0.0
2016-Jul-06 01:26N 40°38' W 074°10'0 0.0
2016-Jul-06 00:32N 40°38' W 074°10'  
Track history (hours):
 
Tides and Currents Weather Stations Pressure Air Temp Water Temp Dewpoint Dewpoint Depression Visibility Wind Speed Wind Dir Waves Ship Positions

Resolute

Owner: Providence Steamboat Co., PROVIDENCE, RI. More information available from US FCC via Universal Licensing System and Coast Guard Vessel Documentation Center.

Last reported at 2016-Jul-13 16:31 UTC. Time now 2016-Jul-25 11:56 UTC.
Position N 40°38' W 074°10'.
Warning: this ship's position is 11 days out of date.

Length 30 m; draft 4 m.

Type: Tug. MMSI: 367091630.

Date/timePositionNaut miles runAvg speedWind from/ knotsBaromVisibWave heightAir tempDewpointWater temp
2016-Jul-13 16:31N 40°38' W 074°10'7 6.8
2016-Jul-13 15:33N 40°35' W 074°02'8 7.8
2016-Jul-13 14:33N 40°27' W 074°03'2 1.2
2016-Jul-13 13:05N 40°29' W 074°02'2 1.5
2016-Jul-13 11:33N 40°31' W 074°03'8 8.2
2016-Jul-13 10:33N 40°39' W 074°02'4 4.2
2016-Jul-13 09:31N 40°42' W 073°58'2 2.3
2016-Jul-13 08:33N 40°42' W 074°01'6 6.1
2016-Jul-13 07:33N 40°39' W 074°08'  
2016-Jul-07 23:07N 40°39' W 074°05'4 1.2
2016-Jul-07 19:25N 40°35' W 074°02'8 1.1
2016-Jul-07 12:24N 40°38' W 074°12'6 7.6
2016-Jul-07 11:33N 40°40' W 074°04'1 0.6
2016-Jul-07 10:33N 40°40' W 074°05'2 1.9
2016-Jul-07 09:33N 40°39' W 074°03'4 2.1
2016-Jul-07 07:25N 40°40' W 074°09'1 1.3
2016-Jul-07 06:33N 40°39' W 074°09'1 1.4
2016-Jul-07 05:32N 40°40' W 074°08'1 0.9
2016-Jul-07 04:33N 40°39' W 074°09'1 1.0
2016-Jul-07 03:33N 40°38' W 074°10'0 0.0
2016-Jul-07 02:33N 40°38' W 074°10'0 0.0
2016-Jul-07 01:33N 40°38' W 074°10'0 0.0
2016-Jul-07 00:33N 40°38' W 074°10'1 0.2
2016-Jul-06 18:17N 40°38' W 074°12'0 0.0
2016-Jul-06 14:32N 40°38' W 074°11'1 1.3
2016-Jul-06 13:32N 40°38' W 074°10'0 0.0
2016-Jul-06 12:32N 40°38' W 074°10'0 0.0
2016-Jul-06 11:29N 40°38' W 074°10'1 1.2
2016-Jul-06 10:32N 40°39' W 074°11'7 6.6
2016-Jul-06 09:33N 40°37' W 074°03'5 5.2
2016-Jul-06 08:32N 40°38' W 074°10'0 0.0
2016-Jul-06 07:32N 40°38' W 074°10'0 0.0
2016-Jul-06 06:29N 40°38' W 074°10'0 0.0
2016-Jul-06 05:32N 40°38' W 074°10'0 0.0
2016-Jul-06 04:32N 40°38' W 074°10'0 0.0
2016-Jul-06 03:32N 40°38' W 074°10'0 0.0
2016-Jul-06 02:29N 40°38' W 074°10'0 0.0
2016-Jul-06 01:26N 40°38' W 074°10'0 0.0
2016-Jul-06 00:32N 40°38' W 074°10'  

Dump ship's entire track history